createdAt,value
2022-08-18T00:00:39.690Z,47.78
2022-08-18T00:03:57.461Z,49.05
2022-08-18T00:06:35.084Z,41.10
2022-08-18T00:09:20.364Z,42.83
2022-08-18T00:12:12.851Z,45.10
2022-08-18T00:14:58.617Z,44.10
2022-08-18T00:17:43.822Z,49.50
2022-08-18T00:20:29.059Z,45.58
2022-08-18T00:23:14.723Z,62.20
2022-08-18T00:25:59.967Z,57.13
2022-08-18T00:28:45.346Z,55.13
2022-08-18T00:31:30.362Z,57.20
2022-08-18T00:34:15.888Z,58.08
2022-08-18T00:37:01.031Z,50.30
2022-08-18T00:39:47.696Z,51.17
2022-08-18T00:42:33.338Z,53.95
2022-08-18T00:45:34.977Z,49.15
2022-08-18T00:48:23.858Z,55.20
2022-08-18T00:51:15.246Z,47.67
2022-08-18T00:54:11.076Z,47.83
2022-08-18T00:57:01.870Z,50.78
2022-08-18T01:00:05.234Z,58.03
2022-08-18T01:02:58.881Z,49.72
2022-08-18T01:05:50.217Z,48.50
2022-08-18T01:08:35.149Z,58.55
2022-08-18T01:11:20.367Z,51.45
2022-08-18T01:14:08.786Z,65.18
2022-08-18T01:16:57.513Z,61.15
2022-08-18T01:19:43.167Z,65.78
2022-08-18T01:22:45.697Z,65.32
2022-08-18T01:25:31.541Z,54.15
2022-08-18T01:28:17.703Z,58.83
2022-08-18T01:31:04.090Z,61.95
2022-08-18T01:33:49.074Z,60.65
2022-08-18T01:36:36.932Z,51.40
2022-08-18T01:41:24.885Z,50.10
2022-08-18T01:42:27.351Z,51.13
2022-08-18T01:45:15.411Z,53.50
2022-08-18T01:48:00.980Z,53.45
2022-08-18T01:50:46.327Z,56.25
2022-08-18T01:53:31.397Z,57.80
2022-08-18T01:56:16.610Z,58.05
2022-08-18T01:59:01.427Z,63.78
2022-08-18T02:01:53.085Z,81.20
2022-08-18T02:04:38.952Z,85.72
2022-08-18T02:07:23.717Z,65.82
2022-08-18T02:10:19.575Z,63.25
2022-08-18T02:13:05.327Z,67.00
2022-08-18T02:15:51.030Z,63.05
2022-08-18T02:18:48.422Z,67.53
2022-08-18T02:21:34.050Z,62.85
2022-08-18T02:24:19.559Z,68.57
2022-08-18T02:27:05.844Z,76.43
2022-08-18T02:29:50.825Z,82.25
2022-08-18T02:32:36.056Z,79.47
2022-08-18T02:35:21.645Z,68.15
2022-08-18T02:38:07.339Z,64.65
2022-08-18T02:41:00.327Z,63.17
2022-08-18T02:43:45.391Z,63.65
2022-08-18T02:46:31.257Z,58.75
2022-08-18T02:49:16.405Z,60.75
2022-08-18T02:52:01.381Z,57.72
2022-08-18T02:54:46.142Z,63.85
2022-08-18T02:57:31.287Z,55.15
2022-08-18T03:00:18.968Z,58.38
2022-08-18T03:03:04.433Z,55.88
2022-08-18T03:05:49.363Z,55.67
2022-08-18T03:08:34.227Z,56.92
2022-08-18T03:11:24.611Z,53.97
2022-08-18T03:14:11.255Z,74.80
2022-08-18T03:16:57.228Z,57.22
2022-08-18T03:19:42.463Z,53.90
2022-08-18T03:22:31.072Z,58.38
2022-08-18T03:25:17.301Z,57.92
2022-08-18T03:28:03.896Z,62.83
2022-08-18T03:30:49.161Z,83.57
2022-08-18T03:33:34.554Z,79.60
2022-08-18T03:36:22.329Z,59.30
2022-08-18T03:39:10.750Z,89.40
2022-08-18T03:41:59.919Z,77.15
2022-08-18T03:44:45.943Z,67.05
2022-08-18T03:47:31.317Z,68.10
2022-08-18T03:50:16.109Z,63.65
2022-08-18T03:53:01.079Z,64.53
2022-08-18T03:55:45.925Z,67.57
2022-08-18T03:58:30.885Z,71.05
2022-08-18T04:01:26.537Z,70.32
2022-08-18T04:04:15.595Z,81.30
2022-08-18T04:07:05.809Z,120.15
2022-08-18T04:09:50.525Z,164.02
2022-08-18T04:12:35.320Z,128.98
2022-08-18T04:15:20.251Z,106.85
2022-08-18T04:18:05.379Z,261.17
2022-08-18T04:20:59.132Z,125.60
2022-08-18T04:23:52.748Z,94.57
2022-08-18T04:26:44.197Z,90.68
2022-08-18T04:29:29.489Z,90.60
2022-08-18T04:32:14.268Z,104.28
2022-08-18T04:34:59.134Z,106.30
2022-08-18T04:37:48.075Z,124.25
2022-08-18T04:40:32.903Z,132.18
2022-08-18T04:43:17.962Z,129.30
2022-08-18T04:46:03.372Z,127.72
2022-08-18T04:48:48.597Z,123.40
2022-08-18T04:52:34.401Z,112.93
2022-08-18T04:54:40.363Z,122.18
2022-08-18T04:57:25.448Z,121.93
2022-08-18T05:00:10.956Z,145.73
2022-08-18T05:02:57.169Z,132.32
2022-08-18T05:05:42.366Z,147.18
2022-08-18T05:08:27.295Z,145.20
2022-08-18T05:11:12.274Z,151.20
2022-08-18T05:13:57.698Z,149.73
2022-08-18T05:16:48.894Z,152.90
2022-08-18T05:19:34.710Z,156.32
2022-08-18T05:22:22.337Z,141.90
2022-08-18T05:25:13.926Z,149.55
2022-08-18T05:27:59.065Z,153.25
2022-08-18T05:30:43.939Z,155.85
2022-08-18T05:33:28.832Z,153.02
2022-08-18T05:36:42.037Z,149.55
2022-08-18T05:39:51.057Z,155.98
2022-08-18T05:42:38.857Z,157.45
2022-08-18T05:45:24.534Z,167.55
2022-08-18T05:48:09.401Z,155.48
2022-08-18T05:50:56.071Z,162.63
2022-08-18T05:53:41.811Z,170.60
2022-08-18T05:56:34.379Z,163.02
2022-08-18T05:59:24.956Z,160.68
2022-08-18T06:02:21.851Z,159.60
2022-08-18T06:05:10.712Z,149.57
2022-08-18T06:08:12.120Z,153.02
2022-08-18T06:10:57.272Z,148.70
2022-08-18T06:13:43.352Z,146.95
2022-08-18T06:16:37.824Z,142.80
2022-08-18T06:19:32.822Z,149.13
2022-08-18T06:22:25.077Z,142.10
2022-08-18T06:25:25.424Z,137.27
2022-08-18T06:28:15.781Z,138.95
2022-08-18T06:31:15.869Z,143.52
2022-08-18T06:34:09.841Z,134.30
2022-08-18T06:37:09.011Z,142.50
2022-08-18T06:39:53.961Z,138.50
2022-08-18T06:42:40.614Z,147.75
2022-08-18T06:45:33.905Z,128.43
2022-08-18T06:48:54.174Z,111.55
2022-08-18T06:51:40.911Z,124.32
2022-08-18T06:54:28.784Z,103.75
2022-08-18T06:57:33.979Z,95.90
2022-08-18T07:00:19.005Z,92.50
2022-08-18T07:03:03.792Z,92.85
2022-08-18T07:06:04.402Z,89.15
2022-08-18T07:08:54.494Z,79.40
2022-08-18T07:11:39.245Z,70.65
2022-08-18T07:14:24.518Z,77.25
2022-08-18T07:17:19.637Z,79.63
2022-08-18T07:20:06.978Z,78.70
2022-08-18T07:23:00.138Z,79.05
2022-08-18T07:25:48.342Z,80.30
2022-08-18T07:28:43.227Z,85.00
2022-08-18T07:31:34.235Z,84.18
2022-08-18T07:34:26.295Z,91.47
2022-08-18T07:37:28.431Z,88.60
2022-08-18T07:40:19.867Z,87.88
2022-08-18T07:43:16.574Z,93.15
2022-08-18T07:46:16.078Z,97.63
2022-08-18T07:49:05.403Z,94.93
2022-08-18T07:52:00.256Z,121.45
2022-08-18T07:55:30.798Z,126.10
2022-08-18T07:58:34.652Z,129.85
2022-08-18T08:01:38.645Z,121.43
2022-08-18T08:04:46.339Z,126.68
2022-08-18T08:07:56.434Z,124.65
2022-08-18T08:10:56.334Z,125.90
2022-08-18T08:13:56.231Z,119.40
2022-08-18T08:17:03.013Z,114.15
2022-08-18T08:20:18.518Z,125.72
2022-08-18T08:23:18.585Z,112.60
2022-08-18T08:26:50.807Z,114.40
2022-08-18T08:30:09.498Z,106.25
2022-08-18T08:33:28.158Z,103.47
2022-08-18T08:36:24.913Z,104.57
2022-08-18T08:39:31.951Z,100.88
2022-08-18T08:42:31.430Z,100.28
2022-08-18T08:45:28.461Z,101.40
2022-08-18T08:48:23.483Z,96.72
2022-08-18T08:51:11.486Z,100.07
2022-08-18T08:54:09.250Z,96.95
2022-08-18T08:56:59.765Z,98.85
2022-08-18T08:59:48.621Z,93.97
2022-08-18T09:03:13.292Z,93.65
2022-08-18T09:06:35.768Z,85.18
2022-08-18T09:09:29.633Z,83.47
2022-08-18T09:12:44.911Z,79.65
2022-08-18T09:15:35.865Z,81.25
2022-08-18T09:18:59.394Z,76.82
2022-08-18T09:21:56.935Z,80.43
2022-08-18T09:24:48.174Z,86.35
2022-08-18T09:27:53.932Z,78.38
2022-08-18T09:30:47.600Z,69.00
2022-08-18T09:33:38.864Z,73.85
2022-08-18T09:36:42.201Z,71.20
2022-08-18T09:39:38.798Z,71.85
2022-08-18T09:43:15.971Z,73.28
2022-08-18T09:46:07.980Z,73.35
2022-08-18T09:49:23.213Z,73.07
2022-08-18T09:52:21.042Z,71.38
2022-08-18T09:55:18.476Z,70.35
2022-08-18T09:58:22.946Z,74.97
2022-08-18T10:01:32.416Z,72.75
2022-08-18T10:04:29.324Z,66.63
2022-08-18T10:07:17.782Z,68.38
2022-08-18T10:11:02.211Z,71.25
2022-08-18T10:13:38.770Z,68.82
2022-08-18T10:16:51.129Z,65.40
2022-08-18T10:19:59.605Z,62.17
2022-08-18T10:22:49.419Z,63.70
2022-08-18T10:25:40.938Z,66.45
2022-08-18T10:28:56.040Z,67.40
2022-08-18T10:31:58.614Z,67.05
2022-08-18T10:34:52.890Z,65.03
2022-08-18T10:37:49.136Z,67.55
2022-08-18T10:40:37.695Z,63.10
2022-08-18T10:43:46.171Z,70.57
2022-08-18T10:46:46.873Z,67.32
2022-08-18T10:49:32.848Z,67.65
2022-08-18T10:52:51.350Z,63.70
2022-08-18T10:55:48.361Z,63.75
2022-08-18T10:58:53.955Z,63.60
2022-08-18T11:01:48.003Z,59.75
2022-08-18T11:04:58.612Z,59.58
2022-08-18T11:11:27.179Z,57.65
2022-08-18T11:14:18.536Z,54.55
2022-08-18T11:17:22.019Z,52.83
2022-08-18T11:20:13.542Z,45.65
2022-08-18T11:23:01.969Z,42.20
2022-08-18T11:25:48.450Z,55.40
2022-08-18T11:28:37.383Z,51.42
2022-08-18T11:31:26.659Z,52.60
2022-08-18T11:34:19.927Z,58.05
2022-08-18T11:37:09.782Z,55.25
2022-08-18T11:39:58.336Z,53.00
2022-08-18T11:42:55.035Z,55.17
2022-08-18T11:45:46.497Z,48.45
2022-08-18T11:48:52.305Z,46.95
2022-08-18T11:51:55.423Z,40.35
2022-08-18T11:57:51.508Z,42.78
2022-08-18T12:00:54.838Z,41.00
2022-08-18T12:03:46.757Z,38.95
2022-08-18T12:06:32.667Z,41.55
2022-08-18T12:10:17.300Z,39.30
2022-08-18T12:12:47.355Z,39.92
2022-08-18T12:15:44.897Z,39.50
2022-08-18T12:18:32.707Z,33.85
2022-08-18T12:21:17.616Z,31.80
2022-08-18T12:24:03.331Z,34.13
2022-08-18T12:26:49.721Z,32.58
2022-08-18T12:29:43.722Z,31.45
2022-08-18T12:32:49.152Z,36.25
2022-08-18T12:35:36.196Z,35.03
2022-08-18T12:38:22.534Z,34.75
2022-08-18T12:41:07.409Z,30.92
2022-08-18T12:43:58.998Z,27.58
2022-08-18T12:46:44.818Z,30.42
2022-08-18T12:49:30.147Z,25.02
2022-08-18T12:52:17.281Z,18.92
2022-08-18T12:55:03.237Z,24.58
2022-08-18T12:57:53.511Z,25.65
2022-08-18T13:00:39.287Z,25.55
2022-08-18T13:03:24.546Z,25.30
2022-08-18T13:06:13.726Z,23.48
2022-08-18T13:09:01.981Z,23.23
2022-08-18T13:11:52.006Z,26.85
2022-08-18T13:14:38.543Z,25.30
2022-08-18T13:17:32.113Z,24.63
2022-08-18T13:20:19.159Z,26.65
2022-08-18T13:23:06.216Z,24.75
2022-08-18T13:25:59.435Z,28.05
2022-08-18T13:28:51.558Z,24.08
2022-08-18T13:31:56.012Z,25.52
2022-08-18T13:34:42.965Z,25.75
2022-08-18T13:37:28.827Z,21.08
2022-08-18T13:40:14.230Z,21.42
2022-08-18T13:43:04.556Z,27.70
2022-08-18T13:45:56.312Z,30.52
2022-08-18T13:48:42.088Z,27.60
2022-08-18T13:51:29.438Z,26.42
2022-08-18T13:54:31.160Z,27.50
2022-08-18T13:57:16.687Z,27.13
2022-08-18T14:00:02.444Z,25.30
2022-08-18T14:02:50.945Z,26.92
2022-08-18T14:05:51.747Z,24.30
2022-08-18T14:08:37.382Z,27.17
2022-08-18T14:11:32.892Z,24.55
2022-08-18T14:14:18.938Z,24.10
2022-08-18T14:17:04.181Z,25.83
2022-08-18T14:19:53.158Z,23.05
2022-08-18T14:22:41.568Z,22.45
2022-08-18T14:25:28.062Z,22.48
2022-08-18T14:28:13.883Z,24.45
2022-08-18T14:31:03.890Z,23.55
2022-08-18T14:33:54.158Z,25.17
2022-08-18T14:36:40.679Z,21.90
2022-08-18T14:39:29.187Z,20.35
2022-08-18T14:42:16.466Z,20.13
2022-08-18T14:45:17.033Z,18.73
2022-08-18T14:48:11.193Z,19.15
2022-08-18T14:50:57.813Z,16.63
2022-08-18T14:53:42.994Z,18.73
2022-08-18T14:56:29.555Z,19.80
2022-08-18T14:59:14.860Z,22.27
2022-08-18T15:02:06.166Z,18.25
2022-08-18T15:04:57.828Z,22.02
2022-08-18T15:07:43.279Z,24.85
2022-08-18T15:10:31.246Z,16.70
2022-08-18T15:13:16.809Z,14.73
2022-08-18T15:16:03.112Z,14.77
2022-08-18T15:18:48.119Z,13.55
2022-08-18T15:21:38.486Z,13.80
2022-08-18T15:24:23.949Z,20.75
2022-08-18T15:27:10.502Z,11.70
2022-08-18T15:30:09.350Z,14.93
2022-08-18T15:32:56.494Z,14.82
2022-08-18T15:35:44.430Z,13.85
2022-08-18T15:38:30.956Z,11.75
2022-08-18T15:41:31.221Z,11.48
2022-08-18T15:44:19.655Z,12.57
2022-08-18T15:47:05.902Z,13.57
2022-08-18T15:49:54.809Z,12.45
2022-08-18T15:52:49.311Z,12.18
2022-08-18T15:55:37.700Z,13.40
2022-08-18T15:58:26.933Z,12.10
2022-08-18T16:01:29.989Z,12.02
2022-08-18T16:04:16.128Z,12.52
2022-08-18T16:07:02.139Z,12.65
2022-08-18T16:09:47.305Z,11.20
2022-08-18T16:12:33.026Z,12.43
2022-08-18T16:15:22.418Z,11.65
2022-08-18T16:18:08.775Z,12.68
2022-08-18T16:20:56.685Z,14.98
2022-08-18T16:23:45.458Z,14.35
2022-08-18T16:26:30.435Z,15.23
2022-08-18T16:29:15.432Z,11.70
2022-08-18T16:32:00.371Z,12.70
2022-08-18T16:34:48.602Z,12.27
2022-08-18T16:37:33.625Z,12.77
2022-08-18T16:40:19.905Z,13.20
2022-08-18T16:43:05.329Z,12.63
2022-08-18T16:45:50.590Z,13.65
2022-08-18T16:48:35.978Z,11.90
2022-08-18T16:51:23.583Z,13.48
2022-08-18T16:54:08.837Z,11.43
2022-08-18T16:56:53.707Z,18.63
2022-08-18T16:59:38.916Z,35.53
2022-08-18T17:02:24.236Z,12.85
2022-08-18T17:05:10.041Z,14.15
2022-08-18T17:07:55.057Z,13.35
2022-08-18T17:10:41.524Z,12.80
2022-08-18T17:13:26.802Z,12.07
2022-08-18T17:16:12.968Z,11.07
2022-08-18T17:18:58.185Z,12.45
2022-08-18T17:21:43.406Z,13.38
2022-08-18T17:24:31.484Z,14.25
2022-08-18T17:27:27.807Z,14.30
2022-08-18T17:30:22.842Z,13.02
2022-08-18T17:33:18.471Z,12.55
2022-08-18T17:36:06.627Z,12.13
2022-08-18T17:38:59.296Z,11.70
2022-08-18T17:41:44.007Z,12.35
2022-08-18T17:44:31.463Z,11.45
2022-08-18T17:47:21.712Z,13.40
2022-08-18T17:50:27.802Z,13.93
2022-08-18T17:53:13.948Z,13.07
2022-08-18T17:56:09.586Z,12.10
2022-08-18T17:59:46.103Z,17.30
2022-08-18T18:02:30.670Z,10.48
2022-08-18T18:05:19.513Z,13.32
2022-08-18T18:08:05.761Z,13.43
2022-08-18T18:11:06.332Z,13.73
2022-08-18T18:13:51.521Z,12.30
2022-08-18T18:16:36.900Z,17.00
2022-08-18T18:19:24.426Z,14.32
2022-08-18T18:22:21.527Z,15.40
2022-08-18T18:25:08.919Z,14.30
2022-08-18T18:27:54.526Z,13.30
2022-08-18T18:30:41.293Z,21.45
2022-08-18T18:33:30.159Z,25.58
2022-08-18T18:36:36.680Z,16.58
2022-08-18T18:39:34.006Z,15.02
2022-08-18T18:42:25.966Z,12.35
2022-08-18T18:45:25.185Z,12.60
2022-08-18T18:48:48.300Z,13.05
2022-08-18T18:51:38.287Z,14.93
2022-08-18T18:54:35.281Z,16.80
2022-08-18T18:57:36.248Z,31.40
2022-08-18T19:00:28.926Z,13.43
2022-08-18T19:03:24.430Z,13.65
2022-08-18T19:06:35.762Z,12.98
2022-08-18T19:09:27.419Z,17.10
2022-08-18T19:12:24.396Z,13.43
2022-08-18T19:15:13.721Z,14.38
2022-08-18T19:18:15.292Z,13.40
2022-08-18T19:22:05.974Z,12.55
2022-08-18T19:24:44.912Z,15.02
2022-08-18T19:27:38.010Z,13.40
2022-08-18T19:30:23.566Z,13.52
2022-08-18T19:33:24.728Z,16.13
2022-08-18T19:36:37.717Z,13.43
2022-08-18T19:39:48.856Z,14.40
2022-08-18T19:42:43.917Z,13.93
2022-08-18T19:45:51.440Z,15.55
2022-08-18T19:48:48.419Z,15.93
2022-08-18T19:51:39.737Z,15.02
2022-08-18T19:54:33.195Z,13.65
2022-08-18T19:57:18.639Z,14.82
2022-08-18T20:00:21.264Z,14.40
2022-08-18T20:03:19.526Z,11.85
2022-08-18T20:06:35.097Z,14.27
2022-08-18T20:09:37.544Z,14.10
2022-08-18T20:12:25.306Z,16.42
2022-08-18T20:15:13.728Z,14.15
2022-08-18T20:18:20.417Z,12.77
2022-08-18T20:21:31.264Z,13.63
2022-08-18T20:24:36.349Z,13.13
2022-08-18T20:27:35.065Z,12.00
2022-08-18T20:30:23.971Z,13.48
2022-08-18T20:33:25.794Z,14.23
2022-08-18T20:36:28.404Z,14.93
2022-08-18T20:39:40.834Z,13.93
2022-08-18T20:42:35.254Z,15.60
2022-08-18T20:45:28.701Z,14.00
2022-08-18T20:48:43.298Z,12.27
2022-08-18T20:51:31.379Z,13.35
2022-08-18T20:54:21.377Z,15.05
2022-08-18T20:57:11.711Z,15.40
2022-08-18T21:00:08.857Z,13.63
2022-08-18T21:02:59.267Z,13.43
2022-08-18T21:05:45.640Z,14.90
2022-08-18T21:08:34.598Z,14.98
2022-08-18T21:11:30.881Z,16.23
2022-08-18T21:14:27.132Z,18.23
2022-08-18T21:17:15.267Z,15.63
2022-08-18T21:20:06.672Z,12.20
2022-08-18T21:23:11.616Z,13.52
2022-08-18T21:26:15.244Z,15.38
2022-08-18T21:29:08.552Z,14.75
2022-08-18T21:32:10.028Z,15.32
2022-08-18T21:34:55.202Z,12.70
2022-08-18T21:37:41.429Z,16.63
2022-08-18T21:40:47.915Z,13.65
2022-08-18T21:43:40.703Z,12.40
2022-08-18T21:46:30.498Z,13.35
2022-08-18T21:49:25.304Z,14.80
2022-08-18T21:52:10.708Z,14.15
2022-08-18T21:55:06.382Z,14.35
2022-08-18T21:58:17.864Z,14.30
2022-08-18T22:01:36.933Z,16.88
2022-08-18T22:04:47.636Z,13.05
2022-08-18T22:07:35.054Z,15.10
2022-08-18T22:10:30.483Z,14.30
2022-08-18T22:13:25.630Z,13.98
2022-08-18T22:16:32.434Z,13.30
2022-08-18T22:19:20.173Z,14.98
2022-08-18T22:22:06.042Z,14.43
2022-08-18T22:24:58.195Z,14.63
2022-08-18T22:27:49.342Z,15.73
2022-08-18T22:30:34.746Z,15.75
2022-08-18T22:33:20.031Z,15.20
2022-08-18T22:36:05.068Z,15.75
2022-08-18T22:38:50.702Z,15.32
2022-08-18T22:41:36.921Z,14.40
2022-08-18T22:44:22.314Z,15.93
2022-08-18T22:47:08.731Z,16.83
2022-08-18T22:49:53.954Z,14.85
2022-08-18T22:52:43.919Z,14.68
2022-08-18T22:55:29.048Z,13.88
2022-08-18T22:58:17.575Z,14.30
2022-08-18T23:01:08.060Z,16.83
2022-08-18T23:03:53.159Z,16.58
2022-08-18T23:06:38.104Z,14.63
2022-08-18T23:09:26.706Z,16.92
2022-08-18T23:12:12.811Z,15.82
2022-08-18T23:14:58.173Z,15.80
2022-08-18T23:17:43.598Z,15.05
2022-08-18T23:20:28.446Z,18.38
2022-08-18T23:23:15.617Z,15.07
2022-08-18T23:26:00.692Z,16.25
2022-08-18T23:28:46.080Z,14.65
2022-08-18T23:31:32.606Z,14.15
2022-08-18T23:34:19.742Z,15.13
2022-08-18T23:37:05.354Z,17.50
2022-08-18T23:39:50.743Z,15.32
2022-08-18T23:42:36.025Z,16.67
2022-08-18T23:45:21.047Z,18.17
2022-08-18T23:48:06.936Z,13.48
2022-08-18T23:50:51.937Z,14.13
2022-08-18T23:53:36.817Z,13.75
2022-08-18T23:56:21.723Z,16.52
2022-08-18T23:59:07.862Z,16.27
